18 de maio de 2022

Tempo Código Clima Temp. Visão Nuvens Vento METAR/SPECI
10:55
V
24 °C 10 km+ - 230°   230° 8 kt METAR EHGG 180855Z AUTO 23008KT 200V260 9999 NSC 24/14 Q1020 NOSIG
10:25
V
24 °C 10 km+ - 210°   210° 5 kt METAR EHGG 180825Z AUTO 21005KT 160V240 9999 NSC 24/14 Q1019 NOSIG
09:55
V
23 °C 10 km+ - 170°   170° 6 kt METAR EHGG 180755Z AUTO 17006KT 130V200 9999 NSC 23/14 Q1019 NOSIG
09:25
V
21 °C 10 km+ - 160°   160° 5 kt METAR EHGG 180725Z AUTO 16005KT 120V210 9999 NSC 21/15 Q1019 NOSIG
08:55
V
20 °C 10 km+ - 160°   160° 6 kt METAR EHGG 180655Z AUTO 16006KT 120V220 9999 NSC 20/14 Q1019 NOSIG
08:25
V
19 °C 10 km+ - 170°   170° 7 kt METAR EHGG 180625Z AUTO 17007KT 120V210 9999 NSC 19/14 Q1019 NOSIG
07:55
V
18 °C 10 km+ - 160°   160° 6 kt METAR EHGG 180555Z AUTO 16006KT 110V190 9999 NSC 18/14 Q1019 NOSIG
07:25
V
17 °C 10 km+ - 150°   150° 5 kt METAR EHGG 180525Z AUTO 15005KT 110V190 9999 NSC 17/14 Q1019 NOSIG
06:55
V
16 °C 10 km+ - 130°   130° 4 kt METAR EHGG 180455Z AUTO 13004KT 080V170 9999 NSC 16/13 Q1019 NOSIG
06:25
V
15 °C 10 km+ - 130°   130° 3 kt METAR EHGG 180425Z AUTO 13003KT 080V160 9999 NSC 15/12 Q1019 NOSIG
05:55
V
15 °C 10 km+ - 120°   120° 4 kt METAR EHGG 180355Z AUTO 12004KT 090V160 9999 NSC 15/12 Q1019
05:25
V
15 °C 10 km+ - 120°   120° 3 kt METAR EHGG 180325Z AUTO 12003KT 090V170 9999 NSC 15/12 Q1019
04:55
V
15 °C 10 km+ - 110°   110° 4 kt METAR EHGG 180255Z AUTO 11004KT 080V140 9999 NCD 15/12 Q1019
04:25
V
15 °C 10 km+ - 110°   110° 4 kt METAR EHGG 180225Z AUTO 11004KT 080V140 9999 NCD 15/13 Q1019
03:55
V
15 °C 10 km+ - 110°   110° 5 kt METAR EHGG 180155Z AUTO 11005KT 080V140 9999 NSC 15/13 Q1019
03:25
V
15 °C 10 km+ - 100°   100° 5 kt METAR EHGG 180125Z AUTO 10005KT 080V140 9999 NSC 15/13 Q1019
02:55
V
16 °C 10 km+ - 110°   110° 4 kt METAR EHGG 180055Z AUTO 11004KT 080V140 9999 NSC 16/13 Q1019
02:25
V
16 °C 10 km+ - 100°   100° 6 kt METAR EHGG 180025Z AUTO 10006KT 070V130 9999 NSC 16/13 Q1019
01:55
V
16 °C 10 km+ - 100°   100° 5 kt METAR EHGG 172355Z AUTO 10005KT 9999 NSC 16/14 Q1019
01:25
V
17 °C 10 km+ - 100°   100° 4 kt METAR EHGG 172325Z AUTO 10004KT 9999 NSC 17/14 Q1019
00:55
V
17 °C 10 km+ - 090°   090° 4 kt METAR EHGG 172255Z AUTO 09004KT 9999 NSC 17/14 Q1019
00:25
V
17 °C 10 km+ - 110°   110° 3 kt METAR EHGG 172225Z AUTO 11003KT 9999 NSC 17/14 Q1019

17 de maio de 2022

Tempo Código Clima Temp. Visão Nuvens Vento METAR/SPECI
23:55
V
18 °C 10 km+ - 110°   110° 4 kt METAR EHGG 172155Z AUTO 11004KT 080V140 9999 NSC 18/14 Q1019
23:25
V
18 °C 10 km+ - 130°   130° 3 kt METAR EHGG 172125Z AUTO 13003KT 100V160 9999 NSC 18/14 Q1019
22:55
V
19 °C 10 km+ - 130°   130° 3 kt METAR EHGG 172055Z AUTO 13003KT 090V160 9999 NSC 19/14 Q1019
22:25
V
19 °C 10 km+ - 150°   150° 4 kt METAR EHGG 172025Z AUTO 15004KT 120V180 9999 NSC 19/14 Q1019 NOSIG
21:55
V
19 °C 10 km+ - 150°   150° 4 kt METAR EHGG 171955Z AUTO 15004KT 9999 NSC 19/14 Q1019 NOSIG
21:25
V
20 °C 10 km+ - 130°   130° 3 kt METAR EHGG 171925Z AUTO 13003KT 100V160 9999 NSC 20/14 Q1019 NOSIG
20:55
V
20 °C 10 km+ - 150°   150° 3 kt METAR EHGG 171855Z AUTO 15003KT 100V190 9999 NSC 20/14 Q1019 NOSIG
20:25
V
21 °C 10 km+ - 170°   170° 4 kt METAR EHGG 171825Z AUTO 17004KT 140V200 9999 FEW044/// 21/14 Q1019 NOSIG
19:55
V
21 °C 10 km+ 4.200 ft Var   Var 2 kt METAR EHGG 171755Z AUTO VRB02KT 9999 OVC042/// 21/13 Q1019 NOSIG
19:25
V
22 °C 10 km+ 4.400 ft 030°   030° 3 kt METAR EHGG 171725Z AUTO 03003KT 360V080 9999 BKN044/// OVC049/// 22/12 Q1019 NOSIG
18:55
V
21 °C 10 km+ - 040°   040° 7 kt METAR EHGG 171655Z AUTO 04007KT 010V070 9999 SCT043/// 21/12 Q1019 NOSIG
18:25
V
22 °C 10 km+ - 040°   040° 7 kt METAR EHGG 171625Z AUTO 04007KT 360V070 9999 NSC 22/12 Q1019 NOSIG
17:55
V
23 °C 10 km+ - 260°   260° 4 kt METAR EHGG 171555Z AUTO 26004KT 210V330 9999 NSC 23/10 Q1019 NOSIG
17:25
V
24 °C 10 km+ - Var   Var 3 kt METAR EHGG 171525Z AUTO VRB03KT 9999 NSC 24/10 Q1019 NOSIG
16:55
V
24 °C 10 km+ - 330°   330° 2 kt METAR EHGG 171455Z AUTO 33002KT 9999 NSC 24/08 Q1019 NOSIG
16:25
V
25 °C 10 km+ - Var   Var 3 kt METAR EHGG 171425Z AUTO VRB03KT 9999 NSC 25/10 Q1019 NOSIG
15:55
V
23 °C 10 km+ - Var   Var 2 kt METAR EHGG 171355Z AUTO VRB02KT 9999 NSC 23/10 Q1019 NOSIG
15:25
V
23 °C 10 km+ - Var   Var 5 kt METAR EHGG 171325Z AUTO VRB05KT 9999 NSC 23/09 Q1020 NOSIG
14:55
V
23 °C 10 km+ - 240°   240° 8 kt METAR EHGG 171255Z AUTO 24008KT 190V320 9999 NSC 23/09 Q1020 NOSIG
14:25
V
23 °C 10 km+ - 250°   250° 5 kt METAR EHGG 171225Z AUTO 25005KT 9999 NSC 23/09 Q1020 NOSIG
13:55
V
22 °C 10 km+ - 290°   290° 6 kt METAR EHGG 171155Z AUTO 29006KT 200V360 9999 NSC 22/08 Q1020 NOSIG
13:25
V
23 °C 10 km+ - Var   Var 3 kt METAR EHGG 171125Z AUTO VRB03KT 9999 FEW048 23/10 Q1020 NOSIG
12:55
V
22 °C 10 km+ - 280°   280° 6 kt METAR EHGG 171055Z AUTO 28006KT 200V330 9999 NSC 22/10 Q1020 NOSIG
12:25
V
22 °C 10 km+ - Var   Var 6 kt METAR EHGG 171025Z AUTO VRB06KT 9999 NSC 22/11 Q1020 NOSIG
11:55
V
21 °C 10 km+ - 270°   270° 7 kt METAR EHGG 170955Z AUTO 27007KT 220V330 9999 SCT030 21/12 Q1020 NOSIG
11:25
V
21 °C 10 km+ - 250°   250° 7 kt METAR EHGG 170925Z AUTO 25007KT 200V310 9999 NSC 21/13 Q1020 NOSIG
10:55
V
20 °C 10 km+ - 270°   270° 6 kt METAR EHGG 170855Z AUTO 27006KT 180V310 9999 NSC 20/13 Q1020 NOSIG
10:25
V
19 °C 10 km+ - 280°   280° 7 kt METAR EHGG 170825Z AUTO 28007KT 230V340 9999 NSC 19/13 Q1020 NOSIG
09:55
V
19 °C 10 km+ - 270°   270° 6 kt METAR EHGG 170755Z AUTO 27006KT 230V330 9999 NSC 19/13 Q1020 NOSIG
09:25
V
18 °C 10 km+ - 250°   250° 7 kt METAR EHGG 170725Z AUTO 25007KT 190V290 9999 NSC 18/13 Q1020 NOSIG
08:55
V
17 °C 10 km+ - 260°   260° 6 kt METAR EHGG 170655Z AUTO 26006KT 220V320 9999 NSC 17/13 Q1020 NOSIG
08:25
V
16 °C 10 km+ - 270°   270° 7 kt METAR EHGG 170625Z AUTO 27007KT 230V320 9999 NSC 16/13 Q1019 NOSIG
07:55
V
16 °C 10 km+ - 240°   240° 5 kt METAR EHGG 170555Z AUTO 24005KT 190V290 9999 NSC 16/13 Q1019 NOSIG
07:25
V
15 °C 10 km+ - 240°   240° 6 kt METAR EHGG 170525Z AUTO 24006KT 210V270 9999 NSC 15/13 Q1019 NOSIG
06:55
V
15 °C 10 km+ - 230°   230° 7 kt METAR EHGG 170455Z AUTO 23007KT 200V270 9999 NSC 15/13 Q1019 NOSIG
06:25
V
12 °C 10 km+ - 220°   220° 5 kt METAR EHGG 170425Z AUTO 22005KT 9999 NSC 12/12 Q1019 NOSIG
05:55
V
11 °C 10 km+ - 220°   220° 6 kt METAR EHGG 170355Z AUTO 22006KT 9999 NSC 11/11 Q1018 NOSIG
05:25
V
12 °C 10 km+ - 230°   230° 6 kt METAR EHGG 170325Z AUTO 23006KT 9999 NCD 12/11 Q1018
04:55
V
11 °C 10 km+ - 220°   220° 6 kt METAR EHGG 170255Z AUTO 22006KT 9999 NSC 11/10 Q1018
04:25
V
12 °C 10 km+ - 230°   230° 5 kt METAR EHGG 170225Z AUTO 23005KT 9999 NSC 12/11 Q1018
03:55
V
12 °C 10 km+ - 220°   220° 6 kt METAR EHGG 170155Z AUTO 22006KT 9999 NSC 12/11 Q1018
03:25
V
13 °C 10 km+ - 230°   230° 7 kt METAR EHGG 170125Z AUTO 23007KT 9999 NCD 13/12 Q1018
02:55
V
13 °C 10 km+ - 230°   230° 8 kt METAR EHGG 170055Z AUTO 23008KT 9999 NSC 13/12 Q1018
02:25
V
13 °C 10 km+ - 230°   230° 7 kt METAR EHGG 170025Z AUTO 23007KT 9999 NSC 13/12 Q1018
01:55
V
13 °C 10 km+ - 230°   230° 6 kt METAR EHGG 162355Z AUTO 23006KT 9999 NCD 13/12 Q1018
01:25
V
13 °C 10 km+ - 230°   230° 6 kt METAR EHGG 162325Z AUTO 23006KT 9999 NCD 13/12 Q1018
00:55
V
15 °C 10 km+ 3.700 ft 240°   240° 6 kt METAR EHGG 162255Z AUTO 24006KT 9999 OVC037 15/13 Q1018
00:25
V
16 °C 10 km+ 4.900 ft 230°   230° 7 kt METAR EHGG 162225Z AUTO 23007KT 9999 BKN049 16/13 Q1018

16 de maio de 2022

Tempo Código Clima Temp. Visão Nuvens Vento METAR/SPECI
23:55
V
16 °C 10 km+ 4.500 ft 230°   230° 5 kt METAR EHGG 162155Z AUTO 23005KT 9999 OVC045 16/13 Q1018
23:25
V
16 °C 10 km+ 4.700 ft 240°   240° 7 kt METAR EHGG 162125Z AUTO 24007KT 210V270 9999 FEW021 OVC047 16/13 Q1018
22:55
M
16 °C 10 km+ 2.800 ft 240°   240° 8 kt METAR EHGG 162055Z AUTO 24008KT 200V270 9999 SCT025 BKN028 BKN032 16/13 Q1017 NOSIG
22:25
V
17 °C 10 km+ 4.600 ft 240°   240° 9 kt METAR EHGG 162025Z AUTO 24009KT 210V270 9999 FEW017 SCT025 OVC046 17/13 Q1017 NOSIG
21:55
M
17 °C 10 km+ 1.900 ft 230°   230° 9 kt METAR EHGG 161955Z AUTO 23009KT 9999 OVC019 17/14 Q1017 NOSIG
21:25
M
17 °C 10 km+ 1.800 ft 230°   230° 9 kt METAR EHGG 161925Z AUTO 23009KT 210V270 9999 OVC018 17/14 Q1017 TEMPO BKN014
20:55
M
17 °C 10 km+ 2.300 ft 220°   220° 11 kt METAR EHGG 161855Z AUTO 22011KT 9999 FEW015CB BKN023 OVC033 17/14 Q1016 TEMPO BKN014
20:25
M
17 °C 10 km+ 1.700 ft 230°   230° 9 kt METAR EHGG 161825Z AUTO 23009KT 200V260 9999 FEW015CB OVC017 17/14 Q1016 RETS BECMG BKN030 TEMPO BKN014
19:55
M
17 °C 8 km 1.600 ft 220°   220° 7 kt METAR EHGG 161755Z AUTO 22007KT 190V250 8000 TS FEW015CB OVC016 17/15 Q1016 REDZ BECMG NSW BKN030 TEMPO BKN014
19:25
V
18 °C 10 km+ 4.600 ft 250°   250° 11 kt METAR EHGG 161725Z AUTO 25011KT 220V280 9999 DZ TS FEW015CB SCT042 OVC046 18/14 Q1016 BECMG NSW TEMPO 7000 -SHRA FEW050CB
18:55
V
18 °C 10 km+ - 250°   250° 10 kt METAR EHGG 161655Z AUTO 25010KT 220V280 9999 FEW017 SCT042 18/15 Q1016 TEMPO 7000 -SHRA FEW050CB
18:25
V
18 °C 10 km+ - 250°   250° 11 kt METAR EHGG 161625Z AUTO 25011KT 9999 NSC 18/15 Q1015 REDZ NOSIG
17:55
V
19 °C 10 km+ - 240°   240° 15 kt METAR EHGG 161555Z AUTO 24015KT 210V270 9999 -RA NSC 19/16 Q1015 TEMPO 6000 SHRA FEW050CB
17:25
V
22 °C 10 km+ - 260°   260° 12 kt METAR EHGG 161525Z AUTO 26012KT 230V300 9999 SCT037 22/15 Q1015 TEMPO 6000 SHRA FEW050CB
16:55
V
23 °C 10 km+ - 250°   250° 10 kt METAR EHGG 161455Z AUTO 25010KT 210V290 9999 NSC 23/14 Q1014 TEMPO 6000 SHRA FEW050CB
16:25
V
24 °C 10 km+ - 260°   260° 9 kt METAR EHGG 161425Z AUTO 26009KT 230V300 9999 NSC 24/13 Q1014 NOSIG
15:55
V
23 °C 10 km+ - 230°   230° 7 kt METAR EHGG 161355Z AUTO 23007KT 190V270 9999 NSC 23/13 Q1014 BECMG 25010KT
15:25
V
24 °C 10 km+ - 200°   200° 6 kt METAR EHGG 161325Z AUTO 20006KT 140V240 9999 NSC 24/13 Q1014 BECMG 25010KT
14:55
V
23 °C 10 km+ - 170°   170° 4 kt METAR EHGG 161255Z AUTO 17004KT 120V210 9999 NSC 23/12 Q1014 REDZ NOSIG
14:25
V
23 °C 10 km+ - 200°   200° 7 kt METAR EHGG 161225Z AUTO 20007KT 170V230 9999 FEW040CB 23/13 Q1014 BECMG CAVOK
13:55
V
23 °C 10 km+ - 170°   170° 8 kt METAR EHGG 161155Z AUTO 17008KT 130V210 9999 -RA FEW045 FEW048CB 23/11 Q1014 BECMG CAVOK
13:25
V
23 °C 10 km+ - 120°   120° 6 kt METAR EHGG 161125Z AUTO 12006KT 070V200 9999 NSC 23/10 Q1014 NOSIG
12:55
V
24 °C 10 km+ - 150°   150° 8 kt METAR EHGG 161055Z AUTO 15008KT 090V210 9999 NSC 24/09 Q1014 NOSIG
12:25
V
24 °C 10 km+ - 110°   110° 8 kt METAR EHGG 161025Z AUTO 11008KT 070V160 9999 NSC 24/11 Q1014 NOSIG
11:55
V
23 °C 10 km+ - 130°   130° 9 kt METAR EHGG 160955Z AUTO 13009KT 070V180 9999 NSC 23/10 Q1014 NOSIG
11:25
V
21 °C 10 km+ - 110°   110° 7 kt METAR EHGG 160925Z AUTO 11007KT 050V160 9999 NSC 21/09 Q1014 NOSIG
10:55
V
21 °C 10 km+ - 100°   100° 8 kt METAR EHGG 160855Z AUTO 10008KT 060V160 9999 NSC 21/10 Q1014 NOSIG
Dados mais antigos

Baixe nosso aplicativo

Fácil acesso a todas as condições meteorológicas da aviação no seu celular e no seu tablet.
Com muitos recursos não disponíveis no site, como suporte offline e uma lista pessoal de aeroportos.